createdAt,value
2022-10-01T00:00:50.187Z,10.20
2022-10-01T00:01:50.217Z,10.70
2022-10-01T00:02:50.191Z,10.70
2022-10-01T00:03:50.154Z,11.00
2022-10-01T00:04:50.145Z,11.10
2022-10-01T00:05:50.125Z,10.70
2022-10-01T00:06:50.116Z,10.70
2022-10-01T00:07:50.099Z,10.70
2022-10-01T00:08:50.088Z,10.70
2022-10-01T00:09:50.077Z,11.50
2022-10-01T00:10:50.097Z,11.30
2022-10-01T00:11:50.048Z,11.90
2022-10-01T00:12:50.059Z,11.30
2022-10-01T00:13:50.068Z,11.60
2022-10-01T00:14:50.010Z,10.90
2022-10-01T00:15:50.026Z,11.30
2022-10-01T00:16:50.061Z,12.00
2022-10-01T00:17:49.987Z,10.50
2022-10-01T00:18:49.967Z,10.00
2022-10-01T00:19:49.954Z,10.30
2022-10-01T00:20:49.979Z,12.10
2022-10-01T00:21:49.971Z,10.70
2022-10-01T00:22:49.931Z,10.90
2022-10-01T00:23:49.938Z,10.60
2022-10-01T00:24:49.898Z,10.50
2022-10-01T00:25:49.901Z,11.20
2022-10-01T00:26:49.895Z,10.90
2022-10-01T00:27:49.922Z,10.30
2022-10-01T00:28:49.870Z,11.30
2022-10-01T00:29:49.865Z,11.50
2022-10-01T00:30:49.833Z,11.90
2022-10-01T00:31:49.911Z,11.90
2022-10-01T00:32:49.820Z,11.90
2022-10-01T00:33:49.802Z,12.40
2022-10-01T00:34:49.820Z,11.20
2022-10-01T00:35:49.775Z,10.80
2022-10-01T00:36:49.769Z,11.50
2022-10-01T00:37:49.752Z,10.70
2022-10-01T00:38:49.739Z,11.20
2022-10-01T00:39:49.743Z,11.50
2022-10-01T00:40:49.751Z,11.20
2022-10-01T00:41:49.707Z,11.50
2022-10-01T00:42:49.844Z,11.00
2022-10-01T00:43:49.698Z,10.80
2022-10-01T00:44:49.710Z,11.10
2022-10-01T00:45:49.775Z,11.00
2022-10-01T00:46:49.679Z,11.90
2022-10-01T00:47:49.646Z,10.90
2022-10-01T00:48:49.639Z,10.70
2022-10-01T00:49:49.650Z,12.40
2022-10-01T00:50:49.637Z,11.80
2022-10-01T00:51:49.769Z,12.60
2022-10-01T00:52:49.583Z,11.30
2022-10-01T00:53:49.586Z,11.20
2022-10-01T00:54:49.592Z,12.90
2022-10-01T00:55:49.550Z,12.20
2022-10-01T00:56:49.552Z,11.20
2022-10-01T00:57:49.560Z,13.10
2022-10-01T00:58:49.533Z,13.40
2022-10-01T00:59:49.528Z,13.60
2022-10-01T01:00:49.503Z,15.70
2022-10-01T01:01:49.627Z,14.80
2022-10-01T01:02:49.529Z,14.30
2022-10-01T01:03:49.461Z,15.10
2022-10-01T01:04:49.454Z,15.50
2022-10-01T01:05:49.465Z,15.90
2022-10-01T01:06:49.458Z,17.70
2022-10-01T01:07:49.425Z,17.20
2022-10-01T01:08:49.417Z,17.30
2022-10-01T01:09:49.396Z,19.50
2022-10-01T01:10:49.381Z,17.10
2022-10-01T01:11:49.398Z,17.50
2022-10-01T01:12:49.382Z,16.00
2022-10-01T01:13:49.387Z,18.10
2022-10-01T01:14:49.394Z,19.30
2022-10-01T01:15:49.420Z,20.50
2022-10-01T01:16:49.326Z,20.20
2022-10-01T01:17:49.318Z,20.90
2022-10-01T01:18:49.316Z,19.90
2022-10-01T01:19:49.296Z,18.90
2022-10-01T01:20:49.296Z,19.80
2022-10-01T01:21:49.268Z,20.00
2022-10-01T01:22:49.263Z,19.50
2022-10-01T01:23:49.257Z,22.20
2022-10-01T01:24:49.232Z,25.50
2022-10-01T01:25:49.243Z,22.90
2022-10-01T01:26:49.208Z,23.30
2022-10-01T01:27:49.234Z,21.60
2022-10-01T01:28:49.184Z,21.40
2022-10-01T01:29:49.169Z,21.00
2022-10-01T01:30:49.305Z,18.30
2022-10-01T01:31:49.184Z,17.90
2022-10-01T01:32:49.145Z,18.60
2022-10-01T01:33:49.128Z,18.80
2022-10-01T01:34:49.122Z,19.80
2022-10-01T01:35:49.105Z,20.70
2022-10-01T01:36:49.150Z,19.10
2022-10-01T01:37:49.078Z,20.10
2022-10-01T01:38:49.086Z,21.00
2022-10-01T01:39:49.059Z,24.60
2022-10-01T01:40:49.047Z,20.30
2022-10-01T01:41:49.043Z,20.00
2022-10-01T01:42:49.050Z,19.10
2022-10-01T01:43:49.013Z,21.20
2022-10-01T01:44:49.024Z,21.30
2022-10-01T01:45:49.020Z,23.00
2022-10-01T01:46:49.017Z,20.80
2022-10-01T01:47:48.982Z,21.50
2022-10-01T01:48:48.956Z,24.00
2022-10-01T01:49:48.956Z,20.60
2022-10-01T01:50:48.939Z,20.70
2022-10-01T01:51:48.951Z,19.70
2022-10-01T01:52:48.915Z,19.40
2022-10-01T01:53:48.911Z,19.40
2022-10-01T01:54:48.918Z,21.10
2022-10-01T01:55:48.886Z,19.80
2022-10-01T01:56:48.866Z,19.50
2022-10-01T01:57:48.905Z,20.50
2022-10-01T01:58:48.894Z,20.30
2022-10-01T01:59:48.849Z,19.70
2022-10-01T02:00:48.826Z,19.40
2022-10-01T02:01:48.927Z,20.00
2022-10-01T02:02:48.924Z,20.20
2022-10-01T02:03:48.790Z,20.50
2022-10-01T02:04:48.780Z,21.20
2022-10-01T02:05:48.790Z,20.90
2022-10-01T02:06:48.757Z,21.40
2022-10-01T02:07:48.764Z,19.50
2022-10-01T02:08:48.759Z,21.30
2022-10-01T02:09:48.735Z,20.50
2022-10-01T02:10:48.720Z,20.70
2022-10-01T02:11:48.726Z,22.10
2022-10-01T02:12:48.701Z,21.10
2022-10-01T02:13:48.693Z,21.60
2022-10-01T02:14:48.681Z,20.30
2022-10-01T02:15:48.709Z,21.40
2022-10-01T02:16:48.659Z,22.20
2022-10-01T02:17:48.631Z,22.20
2022-10-01T02:18:48.646Z,20.40
2022-10-01T02:19:48.635Z,19.20
2022-10-01T02:20:48.596Z,20.30
2022-10-01T02:21:48.604Z,20.00
2022-10-01T02:22:48.572Z,20.20
2022-10-01T02:23:48.564Z,20.70
2022-10-01T02:24:48.567Z,20.60
2022-10-01T02:25:48.573Z,21.50
2022-10-01T02:26:48.535Z,21.40
2022-10-01T02:27:48.565Z,24.20
2022-10-01T02:28:48.505Z,24.00
2022-10-01T02:29:48.515Z,26.30
2022-10-01T02:30:48.511Z,24.50
2022-10-01T02:31:48.519Z,23.10
2022-10-01T02:32:48.473Z,21.50
2022-10-01T02:33:48.469Z,22.60
2022-10-01T02:34:48.467Z,26.30
2022-10-01T02:35:48.431Z,24.20
2022-10-01T02:36:48.447Z,25.30
2022-10-01T02:37:48.412Z,25.30
2022-10-01T02:38:48.403Z,24.80
2022-10-01T02:39:48.386Z,24.50
2022-10-01T02:40:48.377Z,23.40
2022-10-01T02:41:48.376Z,25.90
2022-10-01T02:42:48.370Z,24.20
2022-10-01T02:43:48.356Z,23.80
2022-10-01T02:44:48.345Z,24.40
2022-10-01T02:45:48.398Z,24.20
2022-10-01T02:46:48.315Z,27.70
2022-10-01T02:47:48.294Z,24.80
2022-10-01T02:48:48.282Z,23.90
2022-10-01T02:49:48.337Z,24.10
2022-10-01T02:50:48.279Z,25.20
2022-10-01T02:51:48.250Z,27.80
2022-10-01T02:52:48.245Z,25.20
2022-10-01T02:53:48.234Z,23.70
2022-10-01T02:54:48.261Z,22.20
2022-10-01T02:55:48.225Z,23.60
2022-10-01T02:56:49.072Z,23.00
2022-10-01T02:57:48.182Z,22.30
2022-10-01T02:58:48.186Z,24.00
2022-10-01T02:59:48.189Z,26.00
2022-10-01T03:00:48.155Z,24.60
2022-10-01T03:01:48.189Z,24.30
2022-10-01T03:02:48.190Z,25.60
2022-10-01T03:03:48.128Z,25.30
2022-10-01T03:04:48.125Z,25.60
2022-10-01T03:05:48.116Z,26.60
2022-10-01T03:06:48.139Z,23.80
2022-10-01T03:07:48.110Z,26.30
2022-10-01T03:08:48.066Z,27.00
2022-10-01T03:09:48.054Z,25.60
2022-10-01T03:10:48.216Z,24.90
2022-10-01T03:11:48.025Z,24.90
2022-10-01T03:12:48.039Z,24.30
2022-10-01T03:13:48.005Z,25.50
2022-10-01T03:14:47.998Z,25.20
2022-10-01T03:15:48.107Z,27.10
2022-10-01T03:16:47.995Z,26.60
2022-10-01T03:17:47.986Z,27.10
2022-10-01T03:18:47.960Z,27.00
2022-10-01T03:19:47.944Z,26.40
2022-10-01T03:20:47.925Z,29.30
2022-10-01T03:21:47.921Z,26.80
2022-10-01T03:22:47.948Z,28.30
2022-10-01T03:23:47.904Z,26.40
2022-10-01T03:24:47.903Z,25.90
2022-10-01T03:25:47.879Z,25.90
2022-10-01T03:26:47.859Z,27.50
2022-10-01T03:27:47.912Z,25.80
2022-10-01T03:28:47.835Z,24.20
2022-10-01T03:29:47.891Z,24.00
2022-10-01T03:30:47.814Z,28.10
2022-10-01T03:31:47.867Z,29.90
2022-10-01T03:32:47.829Z,29.10
2022-10-01T03:33:47.790Z,26.10
2022-10-01T03:34:47.774Z,29.10
2022-10-01T03:35:47.774Z,29.60
2022-10-01T03:36:47.776Z,30.50
2022-10-01T03:37:47.749Z,31.20
2022-10-01T03:38:47.771Z,30.70
2022-10-01T03:39:47.709Z,32.90
2022-10-01T03:40:47.715Z,28.60
2022-10-01T03:41:47.724Z,28.10
2022-10-01T03:42:47.681Z,28.90
2022-10-01T03:43:47.671Z,29.10
2022-10-01T03:44:47.698Z,28.30
2022-10-01T03:45:47.736Z,30.40
2022-10-01T03:46:47.646Z,31.30
2022-10-01T03:47:47.647Z,29.80
2022-10-01T03:48:47.615Z,29.90
2022-10-01T03:49:47.625Z,28.90
2022-10-01T03:50:47.632Z,32.80
2022-10-01T03:51:47.585Z,30.90
2022-10-01T03:52:47.592Z,27.30
2022-10-01T03:53:47.553Z,28.00
2022-10-01T03:54:47.575Z,28.30
2022-10-01T03:55:47.532Z,29.50
2022-10-01T03:56:47.526Z,29.10
2022-10-01T03:57:47.525Z,28.20
2022-10-01T03:58:47.517Z,30.80
2022-10-01T03:59:47.499Z,26.90
2022-10-01T04:00:47.490Z,26.60
2022-10-01T04:01:47.605Z,27.50
2022-10-01T04:02:47.569Z,25.00
2022-10-01T04:03:47.451Z,24.20
2022-10-01T04:04:47.463Z,26.70
2022-10-01T04:05:47.431Z,25.30
2022-10-01T04:06:47.432Z,25.50
2022-10-01T04:07:47.413Z,25.10
2022-10-01T04:08:47.420Z,25.40
2022-10-01T04:09:47.406Z,25.60
2022-10-01T04:10:47.382Z,24.60
2022-10-01T04:11:47.366Z,23.30
2022-10-01T04:12:47.345Z,24.10
2022-10-01T04:13:47.369Z,26.90
2022-10-01T04:14:47.337Z,26.00
2022-10-01T04:15:47.392Z,25.00
2022-10-01T04:16:47.300Z,26.70
2022-10-01T04:17:47.302Z,27.30
2022-10-01T04:18:47.301Z,29.40
2022-10-01T04:19:47.267Z,27.60
2022-10-01T04:20:47.262Z,26.10
2022-10-01T04:21:47.269Z,25.40
2022-10-01T04:22:47.239Z,27.50
2022-10-01T04:23:47.228Z,27.60
2022-10-01T04:24:47.239Z,28.90
2022-10-01T04:25:47.209Z,26.50
2022-10-01T04:26:47.203Z,27.00
2022-10-01T04:27:47.291Z,25.70
2022-10-01T04:28:47.185Z,28.00
2022-10-01T04:29:47.153Z,26.40
2022-10-01T04:30:47.142Z,25.80
2022-10-01T04:31:47.196Z,23.90
2022-10-01T04:32:47.121Z,27.80
2022-10-01T04:33:47.112Z,25.50
2022-10-01T04:34:47.124Z,23.60
2022-10-01T04:35:47.103Z,25.90
2022-10-01T04:36:47.077Z,24.20
2022-10-01T04:37:47.084Z,24.40
2022-10-01T04:38:47.051Z,26.30
2022-10-01T04:39:47.046Z,26.00
2022-10-01T04:40:47.064Z,29.90
2022-10-01T04:41:47.048Z,29.10
2022-10-01T04:42:47.091Z,27.30
2022-10-01T04:43:47.022Z,23.30
2022-10-01T04:44:47.016Z,24.20
2022-10-01T04:45:46.976Z,24.10
2022-10-01T04:46:47.140Z,23.30
2022-10-01T04:47:46.957Z,22.60
2022-10-01T04:48:46.957Z,22.10
2022-10-01T04:49:46.964Z,24.50
2022-10-01T04:50:46.925Z,26.40
2022-10-01T04:51:46.924Z,27.70
2022-10-01T04:52:46.903Z,26.80
2022-10-01T04:53:46.886Z,25.00
2022-10-01T04:54:46.903Z,28.20
2022-10-01T04:55:46.862Z,27.00
2022-10-01T04:56:46.867Z,26.90
2022-10-01T04:57:46.842Z,28.30
2022-10-01T04:58:46.872Z,25.10
2022-10-01T04:59:46.826Z,26.00
2022-10-01T05:00:46.876Z,25.20
2022-10-01T05:01:46.956Z,27.00
2022-10-01T05:02:46.794Z,26.80
2022-10-01T05:03:46.801Z,29.00
2022-10-01T05:04:46.763Z,30.60
2022-10-01T05:05:46.767Z,34.60
2022-10-01T05:06:46.763Z,27.30
2022-10-01T05:07:46.731Z,28.50
2022-10-01T05:08:46.739Z,28.50
2022-10-01T05:09:46.712Z,31.40
2022-10-01T05:10:46.703Z,30.40
2022-10-01T05:11:46.703Z,27.30
2022-10-01T05:12:46.671Z,27.00
2022-10-01T05:13:46.664Z,29.00
2022-10-01T05:14:46.675Z,27.30
2022-10-01T05:15:46.652Z,28.50
2022-10-01T05:16:46.636Z,28.80
2022-10-01T05:17:46.630Z,29.40
2022-10-01T05:18:46.638Z,27.30
2022-10-01T05:19:46.593Z,28.60
2022-10-01T05:20:46.609Z,24.70
2022-10-01T05:21:46.727Z,25.50
2022-10-01T05:22:46.575Z,24.90
2022-10-01T05:23:46.584Z,27.70
2022-10-01T05:24:46.544Z,27.90
2022-10-01T05:25:46.542Z,25.90
2022-10-01T05:26:46.549Z,29.50
2022-10-01T05:27:46.578Z,25.00
2022-10-01T05:28:46.514Z,26.80
2022-10-01T05:29:46.521Z,26.60
2022-10-01T05:30:46.492Z,23.60
2022-10-01T05:31:46.487Z,27.00
2022-10-01T05:32:54.416Z,28.20
2022-10-01T05:33:46.447Z,28.90
2022-10-01T05:34:49.969Z,31.10
2022-10-01T05:35:47.438Z,28.80
2022-10-01T05:36:46.454Z,30.10
2022-10-01T05:37:46.424Z,29.50
2022-10-01T05:38:46.380Z,31.10
2022-10-01T05:39:46.375Z,29.60
2022-10-01T05:40:46.393Z,28.40
2022-10-01T05:41:46.393Z,30.10
2022-10-01T05:42:46.361Z,31.30
2022-10-01T05:43:46.326Z,30.40
2022-10-01T05:44:46.374Z,29.20
2022-10-01T05:45:46.378Z,32.50
2022-10-01T05:46:46.325Z,31.10
2022-10-01T05:47:46.286Z,30.40
2022-10-01T05:48:46.279Z,30.60
2022-10-01T05:49:46.290Z,32.80
2022-10-01T05:50:46.257Z,30.30
2022-10-01T05:51:46.266Z,29.20
2022-10-01T05:52:46.232Z,29.90
2022-10-01T05:53:50.181Z,32.20
2022-10-01T05:54:46.225Z,30.10
2022-10-01T05:55:46.187Z,27.50
2022-10-01T05:56:46.234Z,29.80
2022-10-01T05:57:46.210Z,30.40
2022-10-01T05:58:46.219Z,28.30
2022-10-01T05:59:46.152Z,28.00
2022-10-01T06:00:46.133Z,28.40
2022-10-01T06:01:46.171Z,27.80
2022-10-01T06:02:46.475Z,26.70
2022-10-01T06:03:46.131Z,27.50
2022-10-01T06:04:46.096Z,28.30
2022-10-01T06:05:46.126Z,26.60
2022-10-01T06:06:46.066Z,27.90
2022-10-01T06:07:46.116Z,27.00
2022-10-01T06:08:46.060Z,26.50
2022-10-01T06:09:46.033Z,27.60
2022-10-01T06:10:46.035Z,27.40
2022-10-01T06:11:46.056Z,26.90
2022-10-01T06:12:45.999Z,26.60
2022-10-01T06:13:45.999Z,24.90
2022-10-01T06:14:45.998Z,27.60
2022-10-01T06:15:45.968Z,24.40
2022-10-01T06:16:46.037Z,24.30
2022-10-01T06:17:45.973Z,24.10
2022-10-01T06:18:45.953Z,22.40
2022-10-01T06:19:45.932Z,23.30
2022-10-01T06:20:45.939Z,21.90
2022-10-01T06:21:45.951Z,20.50
2022-10-01T06:22:45.900Z,19.70
2022-10-01T06:23:45.874Z,21.60
2022-10-01T06:24:45.871Z,21.40
2022-10-01T06:25:45.891Z,22.20
2022-10-01T06:26:45.880Z,21.00
2022-10-01T06:27:45.872Z,20.40
2022-10-01T06:28:45.837Z,23.60
2022-10-01T06:29:45.817Z,20.70
2022-10-01T06:30:45.805Z,20.80
2022-10-01T06:31:45.872Z,19.50
2022-10-01T06:32:45.789Z,20.30
2022-10-01T06:33:45.775Z,19.10
2022-10-01T06:34:45.772Z,20.70
2022-10-01T06:35:45.761Z,20.30
2022-10-01T06:36:45.755Z,21.20
2022-10-01T06:37:45.749Z,19.70
2022-10-01T06:38:45.776Z,21.80
2022-10-01T06:39:46.287Z,19.60
2022-10-01T06:40:45.783Z,21.60
2022-10-01T06:41:46.249Z,19.60
2022-10-01T06:42:46.258Z,18.40
2022-10-01T06:43:45.654Z,18.80
2022-10-01T06:44:45.816Z,18.20
2022-10-01T06:45:45.801Z,17.60
2022-10-01T06:46:45.637Z,18.20
2022-10-01T06:47:45.634Z,17.40
2022-10-01T06:48:45.641Z,17.90
2022-10-01T06:49:48.351Z,18.90
2022-10-01T06:50:45.638Z,17.80
2022-10-01T06:51:45.564Z,17.50
2022-10-01T06:52:45.567Z,17.20
2022-10-01T06:53:45.541Z,16.90
2022-10-01T06:54:45.562Z,17.30
2022-10-01T06:55:45.526Z,16.30
2022-10-01T06:56:45.535Z,16.30
2022-10-01T06:57:45.495Z,17.20
2022-10-01T06:58:45.503Z,16.50
2022-10-01T06:59:45.492Z,16.90
2022-10-01T07:00:45.595Z,17.20
2022-10-01T07:01:45.549Z,16.90
2022-10-01T07:02:45.542Z,15.80
2022-10-01T07:03:45.432Z,16.80
2022-10-01T07:04:45.453Z,17.10
2022-10-01T07:05:45.433Z,18.70
2022-10-01T07:06:45.415Z,17.10
2022-10-01T07:07:45.394Z,17.00
2022-10-01T07:08:45.377Z,16.40
2022-10-01T07:09:45.383Z,17.00
2022-10-01T07:10:45.379Z,16.90
2022-10-01T07:11:45.379Z,16.20
2022-10-01T07:12:45.336Z,16.00
2022-10-01T07:13:45.331Z,16.00
2022-10-01T07:14:45.311Z,16.00
2022-10-01T07:15:45.322Z,16.50
2022-10-01T07:16:45.337Z,14.90
2022-10-01T07:17:45.321Z,16.00
2022-10-01T07:18:45.276Z,16.70
2022-10-01T07:19:45.271Z,16.40
2022-10-01T07:20:45.245Z,15.70
2022-10-01T07:21:45.252Z,16.40
2022-10-01T07:22:45.243Z,16.10
2022-10-01T07:23:45.263Z,15.10
2022-10-01T07:24:45.215Z,15.60
2022-10-01T07:25:45.189Z,15.00
2022-10-01T07:26:45.177Z,14.70
2022-10-01T07:27:45.246Z,14.30
2022-10-01T07:28:45.179Z,15.00
2022-10-01T07:29:45.203Z,14.60
2022-10-01T07:30:45.141Z,15.70
2022-10-01T07:31:45.230Z,16.10
2022-10-01T07:32:45.116Z,15.90
2022-10-01T07:33:45.110Z,15.60
2022-10-01T07:34:45.119Z,15.50
2022-10-01T07:35:45.134Z,15.80
2022-10-01T07:36:45.862Z,14.70
2022-10-01T07:37:45.054Z,14.70
2022-10-01T07:38:45.073Z,14.80
2022-10-01T07:39:45.048Z,15.10
2022-10-01T07:40:45.060Z,15.00
2022-10-01T07:41:45.025Z,14.20
2022-10-01T07:42:45.032Z,14.60
2022-10-01T07:43:44.988Z,14.30
2022-10-01T07:44:44.982Z,14.70
2022-10-01T07:45:45.026Z,14.30
2022-10-01T07:46:44.997Z,14.50
2022-10-01T07:47:44.952Z,15.40
2022-10-01T07:48:44.933Z,15.20
2022-10-01T07:49:44.933Z,14.20
2022-10-01T07:50:44.943Z,14.40
2022-10-01T07:51:44.932Z,14.30
2022-10-01T07:52:44.897Z,14.50
2022-10-01T07:53:44.894Z,14.40
2022-10-01T07:54:44.883Z,14.10
2022-10-01T07:55:44.866Z,14.30
2022-10-01T07:56:44.877Z,14.20
2022-10-01T07:57:44.833Z,14.30
2022-10-01T07:58:44.836Z,13.00
2022-10-01T07:59:44.833Z,12.80
2022-10-01T08:00:44.810Z,12.70
2022-10-01T08:01:44.910Z,12.70
2022-10-01T08:02:44.831Z,12.40
2022-10-01T08:03:44.768Z,12.40
2022-10-01T08:04:44.761Z,12.40
2022-10-01T08:05:44.774Z,11.80
2022-10-01T08:06:44.746Z,11.50
2022-10-01T08:07:44.732Z,11.50
2022-10-01T08:08:44.751Z,11.60
2022-10-01T08:09:44.708Z,11.30
2022-10-01T08:10:44.730Z,11.50
2022-10-01T08:11:44.679Z,11.30
2022-10-01T08:12:44.676Z,11.40
2022-10-01T08:13:44.690Z,11.50
2022-10-01T08:14:44.652Z,11.60
2022-10-01T08:15:44.645Z,10.20
2022-10-01T08:16:44.748Z,10.60
2022-10-01T08:17:44.611Z,9.90
2022-10-01T08:18:44.605Z,10.30
2022-10-01T08:19:44.609Z,10.10
2022-10-01T08:20:44.623Z,9.30
2022-10-01T08:21:44.572Z,9.50
2022-10-01T08:22:44.556Z,9.10
2022-10-01T08:23:44.548Z,8.30
2022-10-01T08:24:44.545Z,8.70
2022-10-01T08:25:44.551Z,8.40
2022-10-01T08:26:44.589Z,8.00
2022-10-01T08:27:44.568Z,7.60
2022-10-01T08:28:44.531Z,7.50
2022-10-01T08:29:44.487Z,7.70
2022-10-01T08:30:44.484Z,8.00
2022-10-01T08:31:44.520Z,7.30
2022-10-01T08:32:44.455Z,7.40
2022-10-01T08:33:44.470Z,6.90
2022-10-01T08:34:44.420Z,7.30
2022-10-01T08:35:44.434Z,7.00
2022-10-01T08:36:44.474Z,8.50
2022-10-01T08:37:44.388Z,7.20
2022-10-01T08:38:44.386Z,7.10
2022-10-01T08:39:44.412Z,7.20
2022-10-01T08:40:44.358Z,7.20
2022-10-01T08:41:44.357Z,7.10
2022-10-01T08:42:44.401Z,6.90
2022-10-01T08:43:44.366Z,7.30
2022-10-01T08:44:44.333Z,6.70
2022-10-01T08:45:44.324Z,7.20
2022-10-01T08:46:44.364Z,7.00
2022-10-01T08:47:44.295Z,6.80
2022-10-01T08:48:44.286Z,7.30
2022-10-01T08:49:44.269Z,6.50
2022-10-01T08:50:44.260Z,6.70
2022-10-01T08:51:44.279Z,6.60
2022-10-01T08:52:44.236Z,6.60
2022-10-01T08:53:44.243Z,6.70
2022-10-01T08:54:44.198Z,6.20
2022-10-01T08:55:44.204Z,6.20
2022-10-01T08:56:44.238Z,6.20
2022-10-01T08:57:44.180Z,6.10
2022-10-01T08:58:44.177Z,6.60
2022-10-01T08:59:44.182Z,6.20
2022-10-01T09:00:44.206Z,6.10
2022-10-01T09:01:44.259Z,6.20
2022-10-01T09:02:44.138Z,6.20
2022-10-01T09:03:44.107Z,6.30
2022-10-01T09:04:44.169Z,6.20
2022-10-01T09:05:44.120Z,5.90
2022-10-01T09:06:44.107Z,5.60
2022-10-01T09:07:44.079Z,5.50
2022-10-01T09:08:44.078Z,5.10
2022-10-01T09:09:44.046Z,5.20
2022-10-01T09:10:44.042Z,5.60
2022-10-01T09:11:44.063Z,5.70
2022-10-01T09:12:44.006Z,4.90
2022-10-01T09:13:46.895Z,5.20
2022-10-01T09:14:44.993Z,4.90
2022-10-01T09:15:43.977Z,4.80
2022-10-01T09:16:44.059Z,5.00
2022-10-01T09:17:43.948Z,5.00
2022-10-01T09:18:43.954Z,5.60
2022-10-01T09:19:47.231Z,4.90
2022-10-01T09:20:43.920Z,4.90
2022-10-01T09:21:43.914Z,6.20
2022-10-01T09:22:43.922Z,4.20
2022-10-01T09:23:43.886Z,4.80
2022-10-01T09:24:43.895Z,4.10
2022-10-01T09:25:43.859Z,3.90
2022-10-01T09:26:43.862Z,3.90
2022-10-01T09:27:43.893Z,4.20
2022-10-01T09:28:43.971Z,4.20
2022-10-01T09:29:43.824Z,4.30
2022-10-01T09:30:43.821Z,4.10
2022-10-01T09:31:43.863Z,4.10
2022-10-01T09:32:43.783Z,3.60
2022-10-01T09:33:43.792Z,3.30
2022-10-01T09:34:43.757Z,3.80
2022-10-01T09:35:43.754Z,4.00
2022-10-01T09:36:43.771Z,4.30
2022-10-01T09:37:43.727Z,4.10
2022-10-01T09:38:43.721Z,3.80
2022-10-01T09:39:43.728Z,3.60
2022-10-01T09:40:43.696Z,4.20
2022-10-01T09:41:43.691Z,4.00
2022-10-01T09:42:43.707Z,4.00
2022-10-01T09:43:43.671Z,3.80
2022-10-01T09:44:43.659Z,3.70
2022-10-01T09:45:43.809Z,3.60
2022-10-01T09:46:43.652Z,3.60
2022-10-01T09:47:43.646Z,3.60
2022-10-01T09:48:43.608Z,4.00
2022-10-01T09:49:43.595Z,5.40
2022-10-01T09:50:43.584Z,3.50
2022-10-01T09:51:43.897Z,4.30
2022-10-01T09:52:43.577Z,3.50
2022-10-01T09:53:43.545Z,3.40
2022-10-01T09:54:43.538Z,3.60
2022-10-01T09:55:43.531Z,3.50
2022-10-01T09:56:43.540Z,3.40
2022-10-01T09:57:43.535Z,4.40
2022-10-01T09:58:43.519Z,2.80
2022-10-01T09:59:43.479Z,3.90
2022-10-01T10:00:44.268Z,3.10
2022-10-01T10:01:43.542Z,3.30
2022-10-01T10:02:48.463Z,5.80
2022-10-01T10:03:44.471Z,2.80
2022-10-01T10:04:43.441Z,2.70
2022-10-01T10:05:43.424Z,3.30
2022-10-01T10:06:44.286Z,4.10
2022-10-01T10:07:43.397Z,3.60
2022-10-01T10:08:43.430Z,2.60
2022-10-01T10:09:43.390Z,2.60
2022-10-01T10:10:43.355Z,3.00
2022-10-01T10:11:43.360Z,2.40
2022-10-01T10:12:43.357Z,3.50
2022-10-01T10:13:43.366Z,2.40
2022-10-01T10:14:44.296Z,2.50
2022-10-01T10:15:43.454Z,2.80
2022-10-01T10:16:43.287Z,2.60
2022-10-01T10:17:43.288Z,2.20
2022-10-01T10:18:43.361Z,2.90
2022-10-01T10:19:43.292Z,3.40
2022-10-01T10:20:43.305Z,2.80
2022-10-01T10:21:43.252Z,3.50
2022-10-01T10:22:43.222Z,2.40
2022-10-01T10:23:43.237Z,2.80
2022-10-01T10:24:43.803Z,3.30
2022-10-01T10:25:43.188Z,2.40
2022-10-01T10:26:43.269Z,2.50
2022-10-01T10:27:43.192Z,2.50
2022-10-01T10:28:44.185Z,2.80
2022-10-01T10:29:43.228Z,2.60
2022-10-01T10:30:43.142Z,2.40
2022-10-01T10:31:43.225Z,2.60
2022-10-01T10:32:43.133Z,3.20
2022-10-01T10:33:43.141Z,3.50
2022-10-01T10:34:43.125Z,3.60
2022-10-01T10:36:52.848Z,4.50
2022-10-01T10:37:52.807Z,3.80
2022-10-01T10:38:52.817Z,4.20
2022-10-01T10:39:52.783Z,3.50
2022-10-01T10:40:52.771Z,3.30
2022-10-01T10:41:52.775Z,3.40
2022-10-01T10:42:52.781Z,3.20
2022-10-01T10:43:52.745Z,4.40
2022-10-01T10:44:52.737Z,4.40
2022-10-01T10:45:52.801Z,3.90
2022-10-01T10:46:52.801Z,3.30
2022-10-01T10:47:52.723Z,3.40
2022-10-01T10:48:52.683Z,3.70
2022-10-01T10:49:52.702Z,4.10
2022-10-01T10:50:52.684Z,3.20
2022-10-01T10:51:52.682Z,3.80
2022-10-01T10:52:52.647Z,4.10
2022-10-01T10:53:52.640Z,3.50
2022-10-01T10:54:52.660Z,4.20
2022-10-01T10:55:52.723Z,4.30
2022-10-01T10:56:53.080Z,4.20
2022-10-01T10:57:57.295Z,3.70
2022-10-01T10:58:53.565Z,6.10
2022-10-01T10:59:52.580Z,4.10
2022-10-01T11:00:52.551Z,4.30
2022-10-01T11:01:52.666Z,4.50
2022-10-01T11:02:52.562Z,4.10
2022-10-01T11:03:52.514Z,4.20
2022-10-01T11:04:52.522Z,4.60
2022-10-01T11:05:52.531Z,3.60
2022-10-01T11:06:52.492Z,4.10
2022-10-01T11:07:52.497Z,4.10
2022-10-01T11:08:52.491Z,5.20
2022-10-01T11:09:52.453Z,5.50
2022-10-01T11:10:52.456Z,6.00
2022-10-01T11:11:52.422Z,4.50
2022-10-01T11:12:52.434Z,5.20
2022-10-01T11:13:52.420Z,4.50
2022-10-01T11:14:52.390Z,4.50
2022-10-01T11:15:52.428Z,6.60
2022-10-01T11:16:52.400Z,4.80
2022-10-01T11:17:52.364Z,4.80
2022-10-01T11:18:52.350Z,6.00
2022-10-01T11:19:52.331Z,5.90
2022-10-01T11:20:52.368Z,5.40
2022-10-01T11:21:52.326Z,4.90
2022-10-01T11:22:52.301Z,4.90
2022-10-01T11:23:52.340Z,5.20
2022-10-01T11:24:52.289Z,5.40
2022-10-01T11:25:52.302Z,5.30
2022-10-01T11:26:53.541Z,5.90
2022-10-01T11:27:52.357Z,5.10
2022-10-01T11:28:52.227Z,5.60
2022-10-01T11:29:52.237Z,7.50
2022-10-01T11:30:52.247Z,6.10
2022-10-01T11:31:52.250Z,6.80
2022-10-01T11:32:52.207Z,6.10
2022-10-01T11:33:52.174Z,5.90
2022-10-01T11:34:52.169Z,6.20
2022-10-01T11:35:52.203Z,5.60
2022-10-01T11:36:55.495Z,5.20
2022-10-01T11:37:52.152Z,5.30
2022-10-01T11:38:52.134Z,5.60
2022-10-01T11:39:52.106Z,5.30
2022-10-01T11:40:52.108Z,5.60
2022-10-01T11:41:52.098Z,6.20
2022-10-01T11:42:52.080Z,5.40
2022-10-01T11:43:52.077Z,6.00
2022-10-01T11:44:52.051Z,5.90
2022-10-01T11:45:52.043Z,5.60
2022-10-01T11:46:52.141Z,5.80
2022-10-01T11:47:52.016Z,6.20
2022-10-01T11:48:52.054Z,6.00
2022-10-01T11:49:52.007Z,7.20
2022-10-01T11:50:52.024Z,5.90
2022-10-01T11:51:51.974Z,5.50
2022-10-01T11:52:51.959Z,6.00
2022-10-01T11:53:51.985Z,6.20
2022-10-01T11:54:55.977Z,6.60
2022-10-01T11:55:51.955Z,6.70
2022-10-01T11:56:51.912Z,6.90
2022-10-01T11:57:51.907Z,6.70
2022-10-01T11:58:51.889Z,6.50
2022-10-01T11:59:51.880Z,6.20
2022-10-01T12:00:51.883Z,6.50
2022-10-01T12:01:51.956Z,6.80
2022-10-01T12:02:51.848Z,6.40
2022-10-01T12:03:51.844Z,6.00
2022-10-01T12:04:51.823Z,6.90
2022-10-01T12:05:51.872Z,6.20
2022-10-01T12:06:51.872Z,7.40
2022-10-01T12:07:51.794Z,6.80
2022-10-01T12:08:51.797Z,6.80
2022-10-01T12:09:51.784Z,6.30
2022-10-01T12:10:51.755Z,6.50
2022-10-01T12:11:51.766Z,7.20
2022-10-01T12:12:51.737Z,7.70
2022-10-01T12:13:51.729Z,6.60
2022-10-01T12:14:51.724Z,7.00
2022-10-01T12:15:51.767Z,7.40
2022-10-01T12:16:51.705Z,6.90
2022-10-01T12:17:51.683Z,6.40
2022-10-01T12:18:51.665Z,6.50
2022-10-01T12:19:51.654Z,6.80
2022-10-01T12:20:51.649Z,6.50
2022-10-01T12:21:51.680Z,6.50
2022-10-01T12:22:51.628Z,6.70
2022-10-01T12:23:51.634Z,5.70
2022-10-01T12:24:51.598Z,6.00
2022-10-01T12:25:51.612Z,6.00
2022-10-01T12:26:51.576Z,6.80
2022-10-01T12:27:51.619Z,6.60
2022-10-01T12:28:54.518Z,6.40
2022-10-01T12:29:52.543Z,6.60
2022-10-01T12:30:51.530Z,6.40
2022-10-01T12:31:51.591Z,5.80
2022-10-01T12:32:51.531Z,6.00
2022-10-01T12:33:51.511Z,6.10
2022-10-01T12:34:54.226Z,5.80
2022-10-01T12:35:51.474Z,7.30
2022-10-01T12:36:51.465Z,7.00
2022-10-01T12:37:51.479Z,6.40
2022-10-01T12:38:51.445Z,6.40
2022-10-01T12:39:51.448Z,6.80
2022-10-01T12:40:51.431Z,6.00
2022-10-01T12:41:51.421Z,6.00
2022-10-01T12:42:51.393Z,5.50
2022-10-01T12:43:51.407Z,6.50
2022-10-01T12:44:51.379Z,5.90
2022-10-01T12:45:51.442Z,5.60
2022-10-01T12:46:51.368Z,6.30
2022-10-01T12:47:51.337Z,5.00
2022-10-01T12:48:51.362Z,4.60
2022-10-01T12:49:51.326Z,5.00
2022-10-01T12:50:51.322Z,4.60
2022-10-01T12:51:51.321Z,4.40
2022-10-01T12:52:51.282Z,4.70
2022-10-01T12:53:51.322Z,4.80
2022-10-01T12:54:51.295Z,5.00
2022-10-01T12:55:51.245Z,4.80
2022-10-01T12:56:51.250Z,4.80
2022-10-01T12:57:51.241Z,4.70
2022-10-01T12:58:51.229Z,5.00
2022-10-01T12:59:51.222Z,5.10
2022-10-01T13:00:51.280Z,4.90
2022-10-01T13:01:51.264Z,5.00
2022-10-01T13:02:51.187Z,5.50